Dahinda, Illinois
Current Conditions -  °F | °C
As of 8:35 PM on Thursday 20 Nov 2014 (Local Time) from KGBG Reporting Station
Clear Clear  
Wind Chill:   Ceiling: Unl
Heat Index: 14°   Visibility: 10mi
Dew Point:   Wind: 5mph
Humidity: 78%   Direction: 310°NW
Pressure: 30.28"   Gusts: NA
Location:  40.92°N, 90.11°W
Report Text: KGBG 210235Z AUTO 31004KT 10SM CLR M10/M13 A3028 RMK AO2 T11021133
Loading
Personal Weather Stations






























Interactive Weather Map New forecast layout! Learn more

10-Day Weather Forecast

Advertisements
Track Severe Weather on mobile